createdAt,value
2019-05-21T00:00:50.896Z,27.13
2019-05-21T00:03:20.183Z,19.70
2019-05-21T00:05:49.467Z,20.80
2019-05-21T00:08:18.781Z,13.75
2019-05-21T00:10:48.136Z,15.60
2019-05-21T00:13:17.541Z,14.13
2019-05-21T00:15:46.813Z,12.98
2019-05-21T00:18:16.172Z,12.20
2019-05-21T00:20:45.489Z,10.63
2019-05-21T00:23:14.781Z,10.10
2019-05-21T00:25:44.198Z,13.83
2019-05-21T00:28:34.628Z,14.35
2019-05-21T00:31:40.306Z,11.05
2019-05-21T00:34:46.195Z,12.37
2019-05-21T00:37:52.045Z,26.17
2019-05-21T00:40:57.795Z,16.52
2019-05-21T00:43:39.356Z,11.73
2019-05-21T00:46:08.607Z,12.17
2019-05-21T00:48:37.943Z,12.40
2019-05-21T00:51:07.215Z,11.35
2019-05-21T00:53:36.500Z,15.03
2019-05-21T00:56:05.754Z,18.02
2019-05-21T00:58:34.981Z,14.50
2019-05-21T01:01:04.311Z,12.85
2019-05-21T01:03:33.566Z,13.03
2019-05-21T01:06:02.942Z,12.43
2019-05-21T01:08:32.191Z,13.13
2019-05-21T01:11:01.364Z,11.40
2019-05-21T01:13:30.604Z,10.45
2019-05-21T01:16:00.329Z,10.53
2019-05-21T01:18:29.580Z,11.00
2019-05-21T01:20:58.925Z,13.38
2019-05-21T01:23:28.323Z,10.93
2019-05-21T01:25:57.696Z,12.53
2019-05-21T01:28:26.985Z,13.85
2019-05-21T01:30:56.377Z,17.60
2019-05-21T01:33:25.684Z,10.08
2019-05-21T01:35:55.039Z,13.40
2019-05-21T01:38:24.359Z,11.63
2019-05-21T01:40:53.584Z,11.78
2019-05-21T01:43:22.803Z,11.12
2019-05-21T01:45:52.072Z,10.85
2019-05-21T01:48:21.416Z,12.37
2019-05-21T01:50:50.691Z,9.98
2019-05-21T01:53:19.936Z,17.48
2019-05-21T01:55:49.173Z,12.00
2019-05-21T01:58:18.453Z,13.60
2019-05-21T02:00:47.683Z,14.03
2019-05-21T02:03:16.929Z,12.03
2019-05-21T02:05:46.180Z,11.10
2019-05-21T02:08:15.506Z,14.30
2019-05-21T02:10:44.732Z,10.53
2019-05-21T02:13:13.980Z,12.03
2019-05-21T02:15:43.225Z,12.95
2019-05-21T02:18:12.424Z,11.08
2019-05-21T02:20:41.629Z,13.40
2019-05-21T02:23:10.888Z,11.63
2019-05-21T02:25:40.737Z,13.10
2019-05-21T02:28:09.924Z,12.82
2019-05-21T02:30:39.151Z,11.25
2019-05-21T02:33:08.322Z,11.55
2019-05-21T02:35:52.734Z,12.58
2019-05-21T02:38:08.502Z,13.80
2019-05-21T02:40:37.823Z,16.27
2019-05-21T02:43:07.109Z,14.40
2019-05-21T02:45:36.295Z,20.02
2019-05-21T02:48:05.455Z,13.08
2019-05-21T02:50:34.661Z,10.15
2019-05-21T02:53:03.862Z,12.15
2019-05-21T02:55:33.158Z,11.70
2019-05-21T02:58:02.413Z,11.55
2019-05-21T03:00:38.223Z,10.58
2019-05-21T03:03:06.150Z,12.60
2019-05-21T03:05:35.320Z,11.75
2019-05-21T03:08:04.567Z,11.22
2019-05-21T03:10:33.879Z,11.83
2019-05-21T03:13:03.059Z,11.85
2019-05-21T03:15:32.389Z,13.80
2019-05-21T03:18:01.731Z,12.47
2019-05-21T03:20:31.093Z,17.07
2019-05-21T03:23:00.273Z,15.08
2019-05-21T03:25:29.522Z,34.50
2019-05-21T03:27:58.820Z,67.53
2019-05-21T03:30:28.070Z,29.52
2019-05-21T03:32:57.311Z,28.10
2019-05-21T03:35:26.574Z,17.00
2019-05-21T03:37:55.982Z,18.42
2019-05-21T03:40:25.215Z,12.82
2019-05-21T03:42:54.528Z,12.28
2019-05-21T03:45:23.784Z,13.70
2019-05-21T03:47:53.022Z,12.28
2019-05-21T03:50:22.257Z,13.62
2019-05-21T03:52:51.433Z,17.57
2019-05-21T03:55:20.604Z,15.50
2019-05-21T03:57:49.804Z,9.58
2019-05-21T04:00:19.050Z,12.65
2019-05-21T04:02:48.408Z,12.05
2019-05-21T04:05:25.408Z,11.83
2019-05-21T04:07:54.596Z,12.03
2019-05-21T04:10:23.919Z,12.85
2019-05-21T04:13:09.103Z,10.30
2019-05-21T04:15:57.412Z,11.57
2019-05-21T04:18:28.235Z,8.48
2019-05-21T04:20:57.416Z,10.20
2019-05-21T04:23:26.655Z,12.68
2019-05-21T04:25:55.997Z,9.23
2019-05-21T04:28:25.165Z,10.05
2019-05-21T04:30:54.495Z,10.82
2019-05-21T04:33:23.683Z,9.25
2019-05-21T04:35:52.920Z,9.70
2019-05-21T04:38:22.257Z,7.22
2019-05-21T04:40:51.526Z,7.67
2019-05-21T04:43:20.779Z,8.23
2019-05-21T04:45:50.045Z,11.10
2019-05-21T04:48:20.524Z,7.50
2019-05-21T04:50:49.759Z,7.80
2019-05-21T04:53:18.934Z,9.53
2019-05-21T04:55:48.091Z,10.38
2019-05-21T04:58:17.474Z,10.43
2019-05-21T05:00:46.732Z,13.50
2019-05-21T05:03:15.917Z,10.40
2019-05-21T05:05:45.220Z,16.50
2019-05-21T05:08:14.463Z,10.98
2019-05-21T05:10:49.190Z,8.33
2019-05-21T05:13:17.451Z,6.05
2019-05-21T05:15:46.696Z,9.03
2019-05-21T05:18:16.162Z,6.85
2019-05-21T05:20:45.480Z,10.03
2019-05-21T05:23:14.940Z,6.67
2019-05-21T05:25:44.229Z,7.53
2019-05-21T05:28:13.402Z,7.28
2019-05-21T05:30:42.726Z,6.22
2019-05-21T05:33:12.012Z,6.90
2019-05-21T05:35:41.181Z,5.35
2019-05-21T05:38:10.373Z,5.55
2019-05-21T05:40:39.640Z,6.67
2019-05-21T05:43:08.887Z,11.00
2019-05-21T05:45:38.116Z,4.80
2019-05-21T05:48:07.396Z,5.30
2019-05-21T05:50:53.302Z,6.12
2019-05-21T05:53:22.546Z,6.45
2019-05-21T05:55:51.840Z,7.58
2019-05-21T05:58:21.098Z,7.08
2019-05-21T06:00:50.340Z,7.15
2019-05-21T06:03:19.613Z,4.97
2019-05-21T06:05:48.982Z,6.20
2019-05-21T06:08:18.267Z,5.85
2019-05-21T06:10:47.677Z,5.87
2019-05-21T06:13:16.860Z,4.83
2019-05-21T06:15:46.141Z,7.10
2019-05-21T06:18:15.601Z,6.35
2019-05-21T06:20:44.891Z,6.70
2019-05-21T06:23:14.063Z,6.28
2019-05-21T06:25:43.329Z,6.03
2019-05-21T06:28:12.670Z,6.03
2019-05-21T06:30:41.976Z,6.90
2019-05-21T06:33:11.180Z,8.18
2019-05-21T06:35:40.482Z,8.23
2019-05-21T06:38:17.690Z,8.18
2019-05-21T06:40:40.701Z,5.83
2019-05-21T06:43:09.980Z,10.98
2019-05-21T06:45:39.356Z,10.50
2019-05-21T06:48:08.602Z,6.90
2019-05-21T06:50:38.057Z,7.97
2019-05-21T06:53:07.540Z,9.20
2019-05-21T06:55:36.796Z,9.43
2019-05-21T06:58:06.040Z,10.63
2019-05-21T07:00:35.334Z,10.50
2019-05-21T07:03:04.563Z,9.20
2019-05-21T07:05:33.809Z,13.70
2019-05-21T07:08:02.979Z,10.43
2019-05-21T07:10:32.227Z,14.50
2019-05-21T07:13:01.429Z,13.88
2019-05-21T07:15:30.728Z,13.95
2019-05-21T07:17:59.934Z,15.18
2019-05-21T07:20:29.181Z,14.90
2019-05-21T07:22:58.636Z,17.73
2019-05-21T07:25:27.940Z,16.55
2019-05-21T07:27:57.233Z,17.92
2019-05-21T07:30:26.496Z,16.35
2019-05-21T07:32:55.936Z,14.87
2019-05-21T07:35:25.253Z,17.67
2019-05-21T07:37:54.466Z,11.75
2019-05-21T07:40:23.735Z,15.43
2019-05-21T07:42:52.948Z,17.65
2019-05-21T07:45:22.126Z,19.62
2019-05-21T07:47:51.301Z,14.10
2019-05-21T07:50:20.603Z,18.55
2019-05-21T07:52:49.786Z,21.02
2019-05-21T07:55:18.963Z,24.55
2019-05-21T07:57:48.315Z,13.75
2019-05-21T08:00:17.566Z,15.65
2019-05-21T08:02:46.752Z,14.07
2019-05-21T08:05:16.102Z,17.00
2019-05-21T08:07:45.307Z,13.53
2019-05-21T08:10:14.952Z,15.45
2019-05-21T08:12:44.289Z,13.58
2019-05-21T08:15:13.480Z,21.35
2019-05-21T08:17:42.792Z,14.38
2019-05-21T08:20:12.113Z,14.83
2019-05-21T08:22:41.377Z,17.55
2019-05-21T08:25:14.567Z,18.48
2019-05-21T08:27:41.567Z,18.15
2019-05-21T08:30:10.836Z,20.20
2019-05-21T08:32:40.065Z,23.27
2019-05-21T08:35:09.911Z,22.65
2019-05-21T08:37:39.160Z,24.80
2019-05-21T08:40:08.435Z,22.73
2019-05-21T08:42:37.696Z,22.02
2019-05-21T08:45:08.140Z,24.27
2019-05-21T08:47:37.375Z,23.80
2019-05-21T08:50:08.351Z,21.73
2019-05-21T08:52:37.615Z,45.17
2019-05-21T08:55:07.654Z,20.32
2019-05-21T08:57:38.450Z,27.35
2019-05-21T09:00:09.813Z,18.27
2019-05-21T09:02:39.109Z,22.25
2019-05-21T09:05:08.957Z,19.85
2019-05-21T09:07:38.134Z,22.58
2019-05-21T09:10:07.586Z,18.00
2019-05-21T09:12:36.889Z,18.17
2019-05-21T09:15:06.996Z,17.92
2019-05-21T09:17:36.216Z,27.60
2019-05-21T09:20:07.023Z,18.48
2019-05-21T09:22:36.284Z,19.55
2019-05-21T09:25:06.066Z,30.00
2019-05-21T09:27:36.029Z,20.00
2019-05-21T09:30:12.405Z,15.23
2019-05-21T09:32:41.634Z,19.40
2019-05-21T09:35:10.811Z,18.37
2019-05-21T09:37:40.062Z,21.62
2019-05-21T09:40:09.439Z,19.75
2019-05-21T09:42:39.149Z,45.58
2019-05-21T09:45:08.510Z,18.55
2019-05-21T09:47:37.857Z,18.50
2019-05-21T09:50:07.565Z,19.32
2019-05-21T09:52:36.801Z,17.45
2019-05-21T09:55:06.117Z,19.30
2019-05-21T09:57:37.071Z,15.03
2019-05-21T10:00:12.631Z,15.15
2019-05-21T10:02:41.983Z,17.40
2019-05-21T10:05:12.536Z,15.25
2019-05-21T10:07:41.810Z,17.98
2019-05-21T10:10:11.090Z,19.27
2019-05-21T10:12:40.334Z,14.05
2019-05-21T10:15:09.611Z,21.90
2019-05-21T10:17:38.820Z,13.93
2019-05-21T10:20:08.110Z,16.67
2019-05-21T10:22:38.987Z,17.87
2019-05-21T10:25:08.250Z,20.48
2019-05-21T10:27:38.468Z,15.50
2019-05-21T10:30:07.780Z,15.08
2019-05-21T10:32:37.046Z,16.23
2019-05-21T10:35:24.180Z,14.47
2019-05-21T10:37:55.550Z,18.65
2019-05-21T10:40:24.848Z,14.98
2019-05-21T10:42:56.498Z,15.55
2019-05-21T10:45:25.710Z,13.65
2019-05-21T10:47:54.888Z,13.20
2019-05-21T10:50:25.489Z,17.07
2019-05-21T10:52:54.817Z,14.20
2019-05-21T10:55:24.134Z,12.70
2019-05-21T10:57:53.443Z,12.60
2019-05-21T11:00:23.566Z,17.05
2019-05-21T11:03:03.616Z,12.90
2019-05-21T11:05:34.434Z,16.12
2019-05-21T11:08:22.974Z,14.00
2019-05-21T11:10:38.209Z,12.03
2019-05-21T11:13:07.464Z,14.13
2019-05-21T11:15:36.906Z,11.60
2019-05-21T11:18:11.427Z,14.63
2019-05-21T11:20:37.310Z,18.85
2019-05-21T11:23:06.561Z,18.10
2019-05-21T11:25:35.876Z,16.82
2019-05-21T11:28:06.175Z,17.30
2019-05-21T11:30:36.453Z,16.20
2019-05-21T11:33:05.722Z,14.58
2019-05-21T11:35:36.570Z,15.00
2019-05-21T11:38:05.891Z,15.45
2019-05-21T11:40:35.271Z,19.95
2019-05-21T11:43:05.824Z,13.50
2019-05-21T11:45:35.069Z,14.85
2019-05-21T11:48:07.527Z,13.98
2019-05-21T11:50:36.967Z,11.70
2019-05-21T11:53:06.409Z,7.65
2019-05-21T11:55:36.009Z,21.25
2019-05-21T11:58:05.360Z,16.20
2019-05-21T12:00:35.046Z,13.72
2019-05-21T12:03:04.636Z,13.03
2019-05-21T12:05:34.024Z,14.90
2019-05-21T12:08:03.339Z,12.20
2019-05-21T12:10:32.842Z,8.15
2019-05-21T12:13:02.099Z,8.53
2019-05-21T12:15:31.551Z,10.90
2019-05-21T12:18:00.874Z,15.53
2019-05-21T12:20:36.657Z,7.35
2019-05-21T12:23:01.538Z,12.40
2019-05-21T12:25:30.919Z,8.60
2019-05-21T12:28:00.255Z,8.75
2019-05-21T12:30:29.696Z,9.83
2019-05-21T12:33:00.037Z,10.85
2019-05-21T12:35:29.270Z,11.38
2019-05-21T12:37:58.557Z,12.30
2019-05-21T12:40:28.723Z,12.25
2019-05-21T12:42:58.132Z,7.72
2019-05-21T12:45:27.534Z,10.15
2019-05-21T12:47:56.914Z,10.40
2019-05-21T12:50:26.398Z,11.53
2019-05-21T12:52:55.722Z,9.50
2019-05-21T12:55:25.112Z,9.38
2019-05-21T12:57:54.619Z,12.00
2019-05-21T13:00:25.601Z,11.48
2019-05-21T13:02:54.927Z,10.08
2019-05-21T13:05:24.283Z,11.40
2019-05-21T13:07:53.549Z,10.88
2019-05-21T13:10:23.004Z,8.55
2019-05-21T13:12:52.330Z,9.55
2019-05-21T13:15:21.847Z,8.98
2019-05-21T13:17:51.372Z,9.25
2019-05-21T13:20:20.908Z,14.80
2019-05-21T13:22:50.229Z,14.03
2019-05-21T13:25:19.609Z,13.08
2019-05-21T13:27:48.994Z,13.25
2019-05-21T13:30:19.918Z,12.88
2019-05-21T13:32:49.301Z,29.55
2019-05-21T13:35:18.651Z,10.88
2019-05-21T13:37:48.246Z,10.53
2019-05-21T13:40:18.578Z,7.90
2019-05-21T13:42:47.966Z,10.35
2019-05-21T13:45:17.388Z,13.13
2019-05-21T13:47:46.651Z,9.60
2019-05-21T13:50:15.889Z,9.25
2019-05-21T13:52:45.286Z,9.58
2019-05-21T13:55:14.757Z,9.20
2019-05-21T13:57:44.089Z,14.05
2019-05-21T14:00:15.136Z,10.90
2019-05-21T14:02:44.525Z,10.55
2019-05-21T14:05:14.757Z,7.83
2019-05-21T14:07:44.097Z,4.00
2019-05-21T14:10:18.159Z,7.50
2019-05-21T14:12:44.576Z,8.53
2019-05-21T14:15:14.017Z,5.03
2019-05-21T14:17:43.451Z,8.48
2019-05-21T14:20:12.900Z,7.90
2019-05-21T14:22:42.140Z,9.05
2019-05-21T14:25:11.319Z,13.15
2019-05-21T14:27:44.808Z,5.17
2019-05-21T14:30:11.750Z,5.77
2019-05-21T14:32:41.173Z,8.18
2019-05-21T14:35:10.537Z,5.50
2019-05-21T14:37:39.918Z,4.65
2019-05-21T14:40:09.642Z,4.20
2019-05-21T14:42:39.188Z,6.22
2019-05-21T14:45:09.382Z,5.85
2019-05-21T14:47:38.613Z,4.50
2019-05-21T14:50:08.399Z,3.87
2019-05-21T14:52:37.660Z,6.78
2019-05-21T14:55:09.835Z,5.03
2019-05-21T14:57:40.103Z,4.97
2019-05-21T15:00:15.546Z,2.95
2019-05-21T15:02:45.175Z,6.65
2019-05-21T15:05:14.907Z,2.77
2019-05-21T15:07:44.335Z,2.05
2019-05-21T15:10:13.733Z,5.12
2019-05-21T15:12:44.143Z,8.15
2019-05-21T15:15:13.546Z,2.60
2019-05-21T15:17:42.868Z,2.98
2019-05-21T15:20:30.078Z,2.58
2019-05-21T15:22:59.390Z,2.25
2019-05-21T15:25:28.795Z,2.22
2019-05-21T15:27:58.347Z,3.10
2019-05-21T15:30:27.601Z,4.35
2019-05-21T15:32:57.033Z,2.83
2019-05-21T15:35:26.405Z,4.35
2019-05-21T15:37:55.688Z,4.35
2019-05-21T15:40:25.026Z,3.22
2019-05-21T15:42:54.378Z,4.78
2019-05-21T15:45:23.545Z,4.25
2019-05-21T15:47:52.835Z,7.53
2019-05-21T15:50:22.221Z,3.42
2019-05-21T15:52:51.579Z,1.70
2019-05-21T15:55:20.784Z,2.20
2019-05-21T15:57:50.292Z,3.55
2019-05-21T16:00:19.616Z,3.80
2019-05-21T16:02:48.879Z,0.93
2019-05-21T16:05:18.282Z,1.87
2019-05-21T16:07:47.545Z,1.20
2019-05-21T16:10:16.916Z,2.65
2019-05-21T16:12:46.342Z,4.03
2019-05-21T16:15:15.719Z,2.15
2019-05-21T16:17:45.048Z,1.47
2019-05-21T16:20:15.189Z,0.80
2019-05-21T16:22:44.486Z,1.25
2019-05-21T16:25:13.898Z,0.72
2019-05-21T16:27:43.215Z,2.60
2019-05-21T16:30:12.535Z,1.77
2019-05-21T16:32:41.751Z,2.83
2019-05-21T16:35:12.121Z,1.17
2019-05-21T16:37:41.532Z,2.70
2019-05-21T16:40:10.800Z,2.27
2019-05-21T16:42:40.277Z,2.25
2019-05-21T16:45:11.297Z,4.20
2019-05-21T16:47:46.297Z,1.35
2019-05-21T16:50:11.740Z,1.30
2019-05-21T16:52:40.987Z,2.30
2019-05-21T16:55:10.298Z,1.25
2019-05-21T16:57:39.624Z,1.92
2019-05-21T17:00:09.157Z,1.05
2019-05-21T17:02:38.481Z,4.25
2019-05-21T17:05:07.994Z,1.30
2019-05-21T17:07:37.392Z,2.15
2019-05-21T17:10:06.851Z,1.37
2019-05-21T17:12:36.097Z,1.30
2019-05-21T17:15:06.674Z,3.37
2019-05-21T17:17:35.944Z,1.77
2019-05-21T17:20:08.818Z,2.95
2019-05-21T17:22:38.312Z,1.95
2019-05-21T17:25:07.833Z,1.72
2019-05-21T17:27:37.186Z,1.30
2019-05-21T17:30:07.225Z,1.57
2019-05-21T17:32:36.804Z,3.08
2019-05-21T17:35:24.441Z,2.90
2019-05-21T17:37:53.702Z,6.12
2019-05-21T17:40:23.009Z,0.88
2019-05-21T17:42:52.296Z,1.57
2019-05-21T17:45:21.487Z,1.67
2019-05-21T17:47:50.658Z,1.92
2019-05-21T17:50:19.948Z,4.37
2019-05-21T17:52:49.196Z,4.00
2019-05-21T17:55:18.375Z,1.60
2019-05-21T17:57:47.863Z,2.35
2019-05-21T18:00:18.690Z,3.10
2019-05-21T18:02:48.091Z,3.90
2019-05-21T18:05:17.466Z,3.17
2019-05-21T18:07:46.745Z,3.80
2019-05-21T18:10:16.433Z,2.85
2019-05-21T18:12:46.353Z,2.52
2019-05-21T18:15:16.198Z,3.05
2019-05-21T18:17:46.198Z,5.72
2019-05-21T18:20:17.129Z,3.45
2019-05-21T18:22:48.023Z,4.10
2019-05-21T18:25:17.238Z,3.62
2019-05-21T18:27:46.774Z,3.77
2019-05-21T18:30:16.077Z,2.50
2019-05-21T18:32:45.494Z,2.85
2019-05-21T18:35:14.687Z,8.48
2019-05-21T18:37:43.922Z,19.20
2019-05-21T18:40:13.183Z,9.73
2019-05-21T18:42:42.428Z,6.00
2019-05-21T18:45:11.628Z,8.58
2019-05-21T18:47:40.902Z,7.15
2019-05-21T18:50:10.206Z,4.12
2019-05-21T18:52:39.379Z,4.03
2019-05-21T18:55:08.540Z,5.28
2019-05-21T18:57:37.742Z,4.08
2019-05-21T19:00:08.668Z,3.77
2019-05-21T19:02:37.838Z,3.37
2019-05-21T19:05:07.188Z,2.30
2019-05-21T19:07:36.690Z,3.67
2019-05-21T19:10:10.369Z,2.60
2019-05-21T19:12:39.702Z,2.77
2019-05-21T19:15:09.042Z,3.08
2019-05-21T19:17:38.349Z,2.77
2019-05-21T19:20:07.889Z,3.12
2019-05-21T19:22:37.150Z,5.72
2019-05-21T19:25:07.960Z,5.42
2019-05-21T19:27:37.235Z,4.65
2019-05-21T19:30:06.909Z,6.03
2019-05-21T19:32:36.148Z,15.30
2019-05-21T19:35:06.356Z,20.88
2019-05-21T19:37:35.586Z,6.05
2019-05-21T19:40:06.518Z,6.00
2019-05-21T19:42:52.288Z,6.45
2019-05-21T19:45:08.508Z,9.13
2019-05-21T19:47:37.720Z,9.33
2019-05-21T19:50:09.681Z,9.75
2019-05-21T19:52:38.859Z,8.65
2019-05-21T19:55:08.459Z,6.65
2019-05-21T19:57:38.511Z,7.67
2019-05-21T20:00:11.081Z,5.75
2019-05-21T20:02:40.659Z,4.72
2019-05-21T20:05:10.435Z,7.50
2019-05-21T20:07:39.698Z,6.78
2019-05-21T20:10:09.106Z,7.33
2019-05-21T20:12:38.452Z,11.65
2019-05-21T20:15:08.035Z,11.50
2019-05-21T20:17:39.729Z,13.55
2019-05-21T20:20:09.162Z,13.85
2019-05-21T20:22:38.815Z,12.23
2019-05-21T20:25:08.765Z,10.78
2019-05-21T20:27:38.001Z,9.18
2019-05-21T20:30:12.616Z,6.25
2019-05-21T20:32:41.234Z,7.50
2019-05-21T20:35:12.191Z,9.55
2019-05-21T20:37:43.079Z,14.78
2019-05-21T20:40:13.752Z,15.45
2019-05-21T20:42:43.696Z,13.55
2019-05-21T20:45:14.579Z,9.98
2019-05-21T20:47:44.727Z,9.40
2019-05-21T20:50:16.333Z,8.60
2019-05-21T20:52:45.548Z,7.28
2019-05-21T20:55:15.026Z,7.40
2019-05-21T20:57:44.272Z,8.80
2019-05-21T21:00:15.207Z,7.22
2019-05-21T21:02:44.750Z,8.45
2019-05-21T21:05:14.728Z,8.63
2019-05-21T21:07:44.126Z,7.10
2019-05-21T21:10:13.572Z,5.35
2019-05-21T21:12:44.383Z,4.70
2019-05-21T21:15:14.224Z,5.10
2019-05-21T21:17:44.249Z,6.12
2019-05-21T21:20:13.432Z,6.85
2019-05-21T21:22:42.660Z,5.40
2019-05-21T21:25:12.710Z,6.45
2019-05-21T21:27:41.947Z,5.42
2019-05-21T21:30:11.253Z,5.12
2019-05-21T21:32:40.416Z,8.93
2019-05-21T21:35:10.866Z,6.05
2019-05-21T21:37:40.230Z,4.80
2019-05-21T21:40:11.038Z,4.97
2019-05-21T21:42:41.312Z,4.30
2019-05-21T21:45:10.702Z,7.30
2019-05-21T21:47:41.438Z,6.92
2019-05-21T21:50:11.456Z,5.67
2019-05-21T21:52:41.413Z,5.50
2019-05-21T21:55:10.701Z,4.42
2019-05-21T21:57:40.972Z,4.42
2019-05-21T22:00:50.172Z,5.00
2019-05-21T22:03:19.553Z,5.62
2019-05-21T22:05:49.578Z,6.87
2019-05-21T22:08:18.762Z,6.55
2019-05-21T22:10:48.023Z,3.72
2019-05-21T22:13:17.571Z,3.65
2019-05-21T22:15:46.767Z,3.83
2019-05-21T22:18:16.009Z,3.17
2019-05-21T22:20:45.315Z,6.40
2019-05-21T22:23:14.557Z,5.95
2019-05-21T22:25:44.359Z,5.60
2019-05-21T22:28:13.623Z,4.75
2019-05-21T22:30:42.922Z,4.28
2019-05-21T22:33:12.102Z,5.05
2019-05-21T22:36:03.628Z,5.00
2019-05-21T22:38:33.053Z,4.95
2019-05-21T22:41:02.505Z,3.25
2019-05-21T22:43:31.970Z,4.20
2019-05-21T22:46:01.519Z,3.83
2019-05-21T22:48:30.940Z,5.12
2019-05-21T22:51:00.396Z,3.80
2019-05-21T22:53:29.853Z,4.97
2019-05-21T22:55:59.287Z,6.10
2019-05-21T22:58:28.764Z,4.10
2019-05-21T23:00:59.985Z,5.87
2019-05-21T23:03:29.471Z,3.92
2019-05-21T23:05:58.901Z,4.40
2019-05-21T23:08:28.328Z,6.20
2019-05-21T23:10:57.818Z,4.92
2019-05-21T23:13:27.251Z,3.65
2019-05-21T23:15:56.676Z,3.20
2019-05-21T23:18:26.140Z,5.30
2019-05-21T23:20:56.361Z,3.45
2019-05-21T23:23:27.139Z,7.42
2019-05-21T23:25:57.570Z,5.92
2019-05-21T23:28:27.187Z,6.22
2019-05-21T23:30:56.725Z,5.72
2019-05-21T23:33:26.609Z,4.42
2019-05-21T23:35:56.038Z,4.95
2019-05-21T23:38:25.472Z,3.70
2019-05-21T23:40:55.283Z,4.72
2019-05-21T23:43:24.723Z,8.00
2019-05-21T23:45:54.154Z,8.53
2019-05-21T23:48:23.860Z,5.87
2019-05-21T23:50:53.287Z,4.33
2019-05-21T23:53:22.735Z,2.83
2019-05-21T23:55:53.452Z,3.58
2019-05-21T23:58:22.903Z,5.35
